Time;durP1;ratioP1;P1;durP2;ratioP2;P2;SDS_P1;SDS_P2;PMS_P1;PMS_P2;Temp;Humidity;BMP_temperature;BMP_pressure;BME280_temperature;BME280_humidity;BME280_pressure;Samples;Min_cycle;Max_cycle;Signal;HPM_P1;HPM_P2
2023/03/18 00:02:02;;;;;;;14.38;11.10;;;6.90;84.80;;;;;;4976898;28;20077;-66
2023/03/18 00:04:28;;;;;;;13.30;10.10;;;6.90;84.80;;;;;;4976932;28;20035;-65
2023/03/18 00:06:54;;;;;;;14.43;10.77;;;6.90;84.90;;;;;;4976931;28;20031;-62
2023/03/18 00:09:20;;;;;;;15.70;11.20;;;7.00;84.80;;;;;;4976592;28;20023;-61
2023/03/18 00:11:45;;;;;;;13.13;10.43;;;7.00;85.30;;;;;;4976470;28;20556;-62
2023/03/18 00:14:12;;;;;;;14.43;11.25;;;7.00;84.50;;;;;;4991479;28;20148;-61
2023/03/18 00:16:38;;;;;;;12.85;9.73;;;7.00;84.50;;;;;;4980671;28;20026;-61
2023/03/18 00:19:05;;;;;;;13.32;10.68;;;7.00;84.20;;;;;;4976362;28;20489;-61
2023/03/18 00:21:31;;;;;;;13.18;9.70;;;7.00;84.20;;;;;;4975363;28;20458;-62
2023/03/18 00:23:57;;;;;;;12.20;9.15;;;7.00;84.10;;;;;;4975547;28;20031;-63
2023/03/18 00:26:24;;;;;;;12.60;10.27;;;6.90;83.90;;;;;;4976541;28;20076;-61
2023/03/18 00:28:50;;;;;;;15.52;10.52;;;6.90;84.00;;;;;;4963343;28;20054;-60
2023/03/18 00:31:17;;;;;;;13.68;10.73;;;6.80;84.10;;;;;;4976065;28;20046;-61
2023/03/18 00:33:46;;;;;;;12.65;9.95;;;6.80;84.20;;;;;;4968569;28;20391;-60
2023/03/18 00:36:13;;;;;;;13.43;9.98;;;6.90;84.40;;;;;;4976138;28;20027;-72
2023/03/18 00:38:41;;;;;;;13.13;10.27;;;6.80;84.40;;;;;;4976837;28;20027;-68
2023/03/18 00:41:10;;;;;;;13.95;10.38;;;6.80;84.50;;;;;;4978082;28;20027;-61
2023/03/18 00:43:51;;;;;;;12.02;9.70;;;6.80;84.50;;;;;;4976082;28;20031;-61
2023/03/18 00:46:37;;;;;;;12.90;10.03;;;6.80;84.50;;;;;;4979234;28;20077;-62
2023/03/18 00:49:06;;;;;;;16.48;10.63;;;6.80;84.40;;;;;;4974954;28;20493;-61
2023/03/18 00:51:36;;;;;;;12.80;9.57;;;6.80;84.70;;;;;;4975497;28;20027;-65
2023/03/18 00:54:08;;;;;;;12.05;9.85;;;6.70;84.60;;;;;;4976154;28;20043;-66
2023/03/18 00:56:37;;;;;;;11.85;8.95;;;6.80;84.70;;;;;;4986801;28;20018;-60
2023/03/18 00:59:03;;;;;;;14.25;11.27;;;6.80;84.70;;;;;;4975639;28;20386;-60
2023/03/18 01:01:30;;;;;;;14.75;10.88;;;6.80;84.50;;;;;;4975583;28;20027;-60
2023/03/18 01:03:56;;;;;;;13.02;9.85;;;6.80;84.50;;;;;;4975097;28;20019;-60
2023/03/18 01:06:27;;;;;;;14.95;11.55;;;6.80;84.50;;;;;;4975298;28;20073;-64
2023/03/18 01:08:54;;;;;;;14.48;11.15;;;6.80;85.00;;;;;;4976452;28;20037;-64
2023/03/18 01:11:21;;;;;;;14.50;10.88;;;6.80;84.50;;;;;;4964136;28;20116;-59
2023/03/18 01:13:47;;;;;;;11.93;9.13;;;6.80;84.50;;;;;;4975503;28;20034;-60
2023/03/18 01:16:14;;;;;;;13.93;10.27;;;6.80;84.50;;;;;;4978814;28;20371;-58
2023/03/18 01:18:40;;;;;;;14.82;11.43;;;6.80;84.50;;;;;;4969643;28;20401;-60
2023/03/18 01:21:07;;;;;;;13.57;10.48;;;6.80;84.50;;;;;;4969463;28;20026;-58
2023/03/18 01:23:34;;;;;;;13.02;9.57;;;6.80;84.40;;;;;;4974272;28;20031;-60
2023/03/18 01:26:00;;;;;;;12.95;9.65;;;6.80;84.40;;;;;;4974888;28;20117;-59
2023/03/18 01:28:27;;;;;;;12.05;8.70;;;6.80;84.50;;;;;;4962421;28;20063;-62
2023/03/18 01:30:54;;;;;;;11.60;9.77;;;6.70;84.70;;;;;;4975308;28;20030;-65
2023/03/18 01:33:20;;;;;;;13.55;10.52;;;6.70;84.50;;;;;;4974161;28;20489;-65
2023/03/18 01:35:51;;;;;;;13.48;9.80;;;6.70;84.60;;;;;;4975975;28;20035;-62
2023/03/18 01:38:17;;;;;;;13.02;10.00;;;6.70;84.60;;;;;;4974813;28;20022;-62
2023/03/18 01:40:44;;;;;;;15.30;11.18;;;6.70;84.70;;;;;;4972528;28;20430;-64
2023/03/18 01:43:11;;;;;;;13.23;10.45;;;6.70;84.70;;;;;;4970553;28;20386;-63
2023/03/18 01:45:37;;;;;;;14.15;10.68;;;6.70;84.70;;;;;;4964590;28;20089;-63
2023/03/18 01:48:03;;;;;;;12.82;10.13;;;6.70;84.70;;;;;;4976277;28;20085;-61
2023/03/18 01:50:34;;;;;;;11.82;9.65;;;6.70;84.70;;;;;;4974679;28;20413;-61
2023/03/18 01:53:19;;;;;;;14.32;11.15;;;6.70;84.70;;;;;;4970512;28;20027;-61
2023/03/18 01:55:47;;;;;;;14.60;10.55;;;6.60;84.60;;;;;;4982638;28;20041;-62
2023/03/18 01:58:28;;;;;;;12.43;10.15;;;6.60;84.70;;;;;;4967764;28;20030;-61
2023/03/18 02:01:08;;;;;;;13.55;9.75;;;6.60;84.80;;;;;;4971844;28;20090;-71
2023/03/18 02:03:35;;;;;;;11.68;9.65;;;6.60;84.70;;;;;;4971538;28;20067;-72
2023/03/18 02:06:02;;;;;;;13.65;9.95;;;6.60;84.60;;;;;;4976831;28;20081;-61
2023/03/18 02:08:28;;;;;;;14.25;10.13;;;6.60;84.60;;;;;;4974480;28;20389;-61
2023/03/18 02:10:54;;;;;;;13.27;10.15;;;6.60;84.70;;;;;;4971320;28;20435;-60
2023/03/18 02:13:20;;;;;;;12.77;10.32;;;6.60;84.80;;;;;;4972861;28;20106;-59
2023/03/18 02:15:57;;;;;;;12.48;9.15;;;6.60;84.80;;;;;;4980283;28;20109;-61
2023/03/18 02:18:29;;;;;;;12.15;9.30;;;6.60;84.80;;;;;;4974371;28;20023;-59
2023/03/18 02:21:30;;;;;;;12.30;9.30;;;6.60;84.90;;;;;;4974018;28;20082;-59
2023/03/18 02:24:30;;;;;;;11.20;9.35;;;6.60;84.80;;;;;;4973134;28;20433;-60
2023/03/18 02:27:01;;;;;;;11.52;9.30;;;6.60;84.80;;;;;;4972562;28;20019;-57
2023/03/18 02:29:30;;;;;;;12.57;10.20;;;6.60;84.90;;;;;;4973868;28;20045;-58
2023/03/18 02:31:56;;;;;;;11.23;9.02;;;6.50;84.90;;;;;;4975169;28;20094;-66
2023/03/18 02:34:27;;;;;;;12.45;9.68;;;6.50;84.90;;;;;;4973981;28;20097;-69
2023/03/18 02:36:53;;;;;;;10.95;8.57;;;6.50;85.00;;;;;;4975104;28;20449;-64
2023/03/18 02:39:20;;;;;;;12.50;9.57;;;6.50;84.90;;;;;;4961567;28;20109;-64
2023/03/18 02:41:46;;;;;;;12.77;9.50;;;6.50;84.90;;;;;;4974007;28;20561;-63
2023/03/18 02:44:11;;;;;;;12.95;10.15;;;6.50;85.10;;;;;;4973429;28;20038;-63
2023/03/18 02:46:52;;;;;;;13.18;9.30;;;6.50;85.10;;;;;;4981038;28;20066;-62
2023/03/18 02:49:20;;;;;;;11.02;8.98;;;6.60;85.00;;;;;;4971536;28;20034;-61
2023/03/18 02:51:46;;;;;;;11.07;9.07;;;6.60;84.90;;;;;;4973848;28;20034;-60
2023/03/18 02:54:15;;;;;;;11.55;8.90;;;6.60;84.80;;;;;;4972858;28;20035;-59
2023/03/18 02:56:42;;;;;;;13.10;10.18;;;6.60;84.60;;;;;;4979458;28;20023;-60
2023/03/18 02:59:10;;;;;;;12.05;9.65;;;6.60;84.50;;;;;;4973204;28;20034;-59
2023/03/18 03:01:36;;;;;;;12.07;9.82;;;6.70;84.50;;;;;;4970226;28;20022;-61
2023/03/18 03:04:02;;;;;;;11.05;9.02;;;6.60;84.40;;;;;;4972926;28;20772;-62
2023/03/18 03:06:28;;;;;;;9.57;8.25;;;6.70;84.30;;;;;;4973889;28;20487;-61
2023/03/18 03:08:54;;;;;;;12.23;9.27;;;6.70;84.30;;;;;;4973263;28;20024;-61
2023/03/18 03:11:21;;;;;;;11.73;9.20;;;6.70;84.20;;;;;;4973552;28;20096;-55
2023/03/18 03:13:47;;;;;;;11.70;8.77;;;6.70;84.20;;;;;;4972595;28;20050;-58
2023/03/18 03:16:16;;;;;;;11.27;9.35;;;6.70;84.00;;;;;;4973649;28;20157;-60
2023/03/18 03:18:43;;;;;;;10.70;8.35;;;6.80;83.90;;;;;;4973312;28;20462;-60
2023/03/18 03:21:09;;;;;;;10.50;8.85;;;6.80;83.80;;;;;;4973631;28;20508;-60
2023/03/18 03:23:36;;;;;;;11.38;9.00;;;6.80;83.90;;;;;;4973156;28;20023;-59
2023/03/18 03:26:03;;;;;;;11.82;8.27;;;6.70;83.70;;;;;;4973121;28;20362;-59
2023/03/18 03:28:29;;;;;;;11.48;8.90;;;6.70;83.80;;;;;;4960942;28;20085;-61
2023/03/18 03:30:55;;;;;;;11.57;9.60;;;6.70;83.90;;;;;;4973088;28;20377;-64
2023/03/18 03:33:22;;;;;;;11.55;8.32;;;6.70;83.80;;;;;;4970766;28;20027;-62
2023/03/18 03:35:48;;;;;;;12.32;9.50;;;6.70;84.00;;;;;;4973546;28;20038;-65
2023/03/18 03:38:13;;;;;;;11.10;9.00;;;6.70;83.90;;;;;;4974003;28;20038;-65
2023/03/18 03:40:39;;;;;;;10.73;8.55;;;6.70;83.80;;;;;;4973515;28;20019;-63
2023/03/18 03:43:05;;;;;;;9.52;7.88;;;6.70;84.30;;;;;;4960467;28;20035;-64
2023/03/18 03:45:32;;;;;;;10.55;8.52;;;6.70;83.80;;;;;;4973139;28;20433;-65
2023/03/18 03:47:58;;;;;;;9.45;7.80;;;6.70;83.80;;;;;;4984921;28;20035;-65
2023/03/18 03:50:25;;;;;;;10.48;8.50;;;6.70;83.90;;;;;;4973501;28;20110;-64
2023/03/18 03:52:51;;;;;;;9.32;7.53;;;6.60;83.70;;;;;;4967247;28;20103;-65
2023/03/18 03:55:18;;;;;;;9.13;7.47;;;6.60;83.90;;;;;;4977175;28;20038;-64
2023/03/18 03:57:45;;;;;;;9.48;7.50;;;6.60;83.90;;;;;;4971996;28;20050;-65
2023/03/18 04:00:13;;;;;;;9.10;7.45;;;6.60;83.90;;;;;;4972466;28;20042;-65
2023/03/18 04:02:42;;;;;;;8.30;7.15;;;6.60;83.90;;;;;;4970179;28;20030;-64
2023/03/18 04:05:09;;;;;;;8.52;7.10;;;6.60;84.00;;;;;;4972203;28;20401;-65
2023/03/18 04:07:35;;;;;;;11.50;8.73;;;6.50;84.60;;;;;;4959985;28;20030;-64
2023/03/18 04:10:01;;;;;;;10.05;7.88;;;6.50;84.00;;;;;;4972094;28;20031;-64
2023/03/18 04:12:27;;;;;;;9.57;7.78;;;6.60;84.10;;;;;;4973042;28;20034;-64
2023/03/18 04:14:53;;;;;;;9.77;7.78;;;6.50;84.10;;;;;;4972908;28;20039;-64
2023/03/18 04:17:19;;;;;;;8.98;7.53;;;6.50;84.20;;;;;;4972660;28;20378;-64
2023/03/18 04:19:44;;;;;;;9.52;8.05;;;6.50;84.20;;;;;;4973076;28;20069;-64
2023/03/18 04:22:10;;;;;;;8.32;7.32;;;6.50;85.10;;;;;;4973239;28;20049;-60
2023/03/18 04:24:36;;;;;;;9.20;7.85;;;6.60;84.60;;;;;;4971796;28;20054;-60
2023/03/18 04:27:02;;;;;;;9.60;7.50;;;6.60;84.40;;;;;;4963148;28;20045;-62
2023/03/18 04:29:28;;;;;;;9.90;7.65;;;6.60;84.20;;;;;;4976298;28;20027;-64
2023/03/18 04:31:53;;;;;;;10.18;7.40;;;6.70;84.10;;;;;;4975238;28;20035;-65
2023/03/18 04:34:19;;;;;;;10.32;7.88;;;6.70;83.90;;;;;;4976091;28;20477;-62
2023/03/18 04:36:45;;;;;;;10.65;8.18;;;6.70;83.90;;;;;;4976094;28;20401;-59
2023/03/18 04:39:10;;;;;;;9.70;7.15;;;6.70;84.00;;;;;;4976008;28;20109;-60
2023/03/18 04:41:36;;;;;;;9.52;6.93;;;6.70;84.10;;;;;;4975808;28;20058;-61
2023/03/18 04:44:02;;;;;;;9.02;7.43;;;6.60;84.30;;;;;;4975843;28;20035;-60
2023/03/18 04:46:29;;;;;;;9.82;8.18;;;6.60;84.40;;;;;;4981915;28;20022;-65
2023/03/18 04:48:55;;;;;;;9.45;7.38;;;6.60;84.40;;;;;;4981708;28;20030;-64
2023/03/18 04:51:21;;;;;;;8.88;7.22;;;6.50;84.70;;;;;;4976604;28;20035;-65
2023/03/18 04:53:47;;;;;;;9.85;7.70;;;6.50;85.10;;;;;;4975121;28;20070;-64
2023/03/18 04:56:13;;;;;;;10.20;8.65;;;6.50;85.20;;;;;;4979707;28;20039;-58
2023/03/18 04:58:38;;;;;;;10.45;7.72;;;6.50;85.30;;;;;;4974903;28;20027;-55
2023/03/18 05:01:04;;;;;;;8.00;6.57;;;6.50;85.50;;;;;;4972371;28;20417;-55
2023/03/18 05:03:30;;;;;;;8.85;7.03;;;6.60;85.40;;;;;;4975381;28;20023;-57
2023/03/18 05:05:55;;;;;;;8.80;6.65;;;6.60;85.20;;;;;;4975087;28;20073;-58
2023/03/18 05:08:22;;;;;;;8.32;6.97;;;6.60;85.30;;;;;;4975769;28;20426;-57
2023/03/18 05:10:49;;;;;;;9.45;7.65;;;6.60;85.20;;;;;;4975281;28;20027;-59
2023/03/18 05:13:15;;;;;;;8.55;7.07;;;6.60;85.10;;;;;;4975405;28;20031;-56
2023/03/18 05:15:41;;;;;;;10.02;8.15;;;6.60;85.20;;;;;;4975176;28;20071;-63
2023/03/18 05:18:07;;;;;;;10.32;7.70;;;6.60;85.30;;;;;;4981294;28;20370;-67
2023/03/18 05:20:33;;;;;;;10.20;7.97;;;6.60;85.40;;;;;;4979898;28;20470;-69
2023/03/18 05:22:59;;;;;;;8.32;6.97;;;6.60;85.40;;;;;;4978804;28;20069;-70
2023/03/18 05:25:25;;;;;;;9.07;7.90;;;6.60;85.40;;;;;;4979770;28;20121;-71
2023/03/18 05:27:50;;;;;;;8.27;7.20;;;6.60;85.50;;;;;;4979711;28;20031;-64
2023/03/18 05:30:16;;;;;;;8.93;7.18;;;6.60;85.50;;;;;;4979696;28;20058;-65
2023/03/18 05:32:42;;;;;;;9.00;7.40;;;6.60;85.50;;;;;;4981634;28;20390;-68
2023/03/18 05:35:09;;;;;;;7.50;6.70;;;6.60;85.60;;;;;;4979863;28;20031;-71
2023/03/18 05:37:35;;;;;;;9.15;6.85;;;6.60;85.70;;;;;;4978349;28;20110;-69
2023/03/18 05:40:03;;;;;;;9.05;7.40;;;6.60;85.90;;;;;;4978747;28;20023;-72
2023/03/18 05:42:29;;;;;;;9.10;7.35;;;6.60;86.00;;;;;;4979435;28;20283;-69
2023/03/18 05:44:55;;;;;;;10.10;7.40;;;6.60;86.10;;;;;;4982028;28;20517;-66
2023/03/18 05:47:21;;;;;;;9.68;7.70;;;6.60;86.10;;;;;;4987154;28;20118;-68
2023/03/18 05:49:47;;;;;;;8.98;7.20;;;6.60;86.20;;;;;;4981921;28;20050;-67
2023/03/18 05:52:16;;;;;;;9.35;7.35;;;6.60;86.30;;;;;;4977386;28;20050;-60
2023/03/18 05:54:42;;;;;;;8.65;7.05;;;6.60;86.50;;;;;;4975108;28;20034;-57
2023/03/18 05:57:08;;;;;;;8.07;6.55;;;6.60;86.40;;;;;;4980392;28;20381;-57
2023/03/18 05:59:34;;;;;;;10.05;7.57;;;6.60;86.30;;;;;;4973046;28;20112;-59
2023/03/18 06:02:00;;;;;;;8.13;6.55;;;6.60;86.60;;;;;;4977825;28;20022;-61
2023/03/18 06:04:26;;;;;;;8.13;6.75;;;6.70;86.60;;;;;;4974199;28;20374;-61
2023/03/18 06:06:52;;;;;;;8.77;6.47;;;6.70;86.50;;;;;;4974538;28;20114;-61
2023/03/18 06:09:18;;;;;;;7.97;6.85;;;6.70;86.60;;;;;;4974310;28;20165;-61
2023/03/18 06:11:44;;;;;;;8.60;6.80;;;6.70;86.60;;;;;;4974511;28;20549;-62
2023/03/18 06:14:11;;;;;;;9.07;6.90;;;6.70;86.60;;;;;;4974084;28;20035;-61
2023/03/18 06:16:37;;;;;;;9.15;6.95;;;6.80;86.60;;;;;;4975366;28;20081;-65
2023/03/18 06:19:04;;;;;;;8.35;6.93;;;6.80;86.50;;;;;;4974068;28;20105;-65
2023/03/18 06:21:31;;;;;;;9.50;7.15;;;6.70;86.30;;;;;;4974548;28;20050;-58
2023/03/18 06:23:57;;;;;;;6.93;6.13;;;6.80;86.30;;;;;;4971988;28;20110;-56
2023/03/18 06:26:23;;;;;;;7.15;6.28;;;6.80;86.10;;;;;;4973510;28;20110;-58
2023/03/18 06:28:49;;;;;;;8.07;6.28;;;6.70;86.00;;;;;;4973751;28;20046;-57
2023/03/18 06:31:15;;;;;;;8.50;6.75;;;6.70;86.10;;;;;;4973985;28;20026;-58
2023/03/18 06:33:41;;;;;;;7.05;6.18;;;6.70;86.30;;;;;;4973503;28;20410;-60
2023/03/18 06:36:07;;;;;;;8.68;6.70;;;6.80;86.40;;;;;;4973925;28;20041;-63
2023/03/18 06:38:33;;;;;;;6.70;5.57;;;6.80;86.20;;;;;;4974012;28;20433;-63
2023/03/18 06:40:59;;;;;;;7.80;6.40;;;6.90;85.90;;;;;;4973189;28;20034;-64
2023/03/18 06:43:25;;;;;;;6.90;5.60;;;6.90;85.70;;;;;;4972295;28;20043;-63
2023/03/18 06:45:51;;;;;;;7.50;6.25;;;7.00;85.50;;;;;;4974376;28;20125;-63
2023/03/18 06:48:18;;;;;;;6.30;5.70;;;7.00;85.30;;;;;;4974000;28;20110;-63
2023/03/18 06:50:44;;;;;;;9.40;6.50;;;7.10;85.40;;;;;;4973205;28;20034;-63
2023/03/18 06:53:09;;;;;;;7.88;5.53;;;7.10;85.00;;;;;;4967266;28;20031;-63
2023/03/18 06:55:36;;;;;;;6.82;5.80;;;7.10;84.90;;;;;;4977129;28;20544;-63
2023/03/18 06:58:04;;;;;;;7.85;5.70;;;7.20;84.90;;;;;;4973142;28;20081;-63
2023/03/18 07:00:34;;;;;;;6.25;5.57;;;7.20;84.70;;;;;;4972043;28;20050;-63
2023/03/18 07:03:00;;;;;;;6.97;5.60;;;7.20;84.70;;;;;;4972660;28;20035;-63
2023/03/18 07:05:26;;;;;;;6.45;4.95;;;7.20;84.60;;;;;;4973176;28;20061;-63
2023/03/18 07:07:53;;;;;;;5.55;5.00;;;7.30;84.60;;;;;;4973759;28;20042;-63
2023/03/18 07:10:29;;;;;;;6.35;5.13;;;7.30;84.70;;;;;;4973095;28;20027;-63
2023/03/18 07:12:54;;;;;;;6.50;5.35;;;7.30;84.50;;;;;;4973169;28;20042;-59
2023/03/18 07:15:22;;;;;;;5.85;4.72;;;7.30;84.20;;;;;;4972088;28;20039;-59
2023/03/18 07:17:49;;;;;;;6.38;4.82;;;7.40;84.10;;;;;;4972996;28;20373;-64
2023/03/18 07:20:15;;;;;;;6.22;5.43;;;7.40;84.00;;;;;;4973365;28;20030;-65
2023/03/18 07:22:44;;;;;;;5.80;4.60;;;7.40;84.00;;;;;;4979407;28;20038;-70
2023/03/18 07:25:10;;;;;;;5.50;4.50;;;7.40;83.80;;;;;;4979356;28;20086;-71
2023/03/18 07:27:35;;;;;;;6.10;4.72;;;7.40;83.60;;;;;;4980756;28;20026;-71
2023/03/18 07:30:01;;;;;;;5.88;4.90;;;7.40;83.60;;;;;;4976760;28;20019;-71
2023/03/18 07:32:29;;;;;;;5.45;4.70;;;7.40;83.50;;;;;;4970995;28;20039;-62
2023/03/18 07:34:56;;;;;;;5.13;4.00;;;7.40;83.60;;;;;;4972734;28;20122;-61
2023/03/18 07:37:22;;;;;;;5.78;4.68;;;7.40;83.40;;;;;;4972757;28;20063;-65
2023/03/18 07:39:47;;;;;;;4.60;4.15;;;7.40;83.30;;;;;;4973039;28;20050;-64
2023/03/18 07:42:14;;;;;;;5.65;4.43;;;7.40;83.30;;;;;;4973080;28;20743;-66
2023/03/18 07:44:39;;;;;;;4.45;3.83;;;7.40;83.00;;;;;;4973355;28;20034;-63
2023/03/18 07:47:05;;;;;;;4.97;4.25;;;7.40;82.80;;;;;;4983873;28;20109;-64
2023/03/18 07:49:31;;;;;;;5.50;4.90;;;7.30;82.70;;;;;;4974453;28;20030;-65
2023/03/18 07:51:57;;;;;;;6.90;4.80;;;7.30;82.80;;;;;;4973022;28;20363;-57
2023/03/18 07:54:23;;;;;;;5.78;4.35;;;7.30;83.00;;;;;;4972704;28;20142;-58
2023/03/18 07:56:51;;;;;;;5.40;4.43;;;7.30;83.00;;;;;;4976195;28;20058;-69
2023/03/18 07:59:17;;;;;;;6.68;4.50;;;7.30;82.90;;;;;;4978983;28;20033;-68
2023/03/18 08:01:43;;;;;;;5.80;4.63;;;7.30;82.80;;;;;;4979765;28;20030;-69
2023/03/18 08:04:09;;;;;;;5.38;4.38;;;7.30;82.80;;;;;;4983909;28;20054;-71
2023/03/18 08:06:35;;;;;;;5.63;4.68;;;7.30;82.80;;;;;;4981885;28;20115;-61
2023/03/18 08:09:02;;;;;;;5.68;4.10;;;7.40;82.60;;;;;;4976176;28;20059;-61
2023/03/18 08:11:28;;;;;;;5.43;4.18;;;7.40;82.40;;;;;;4976416;28;20046;-61
2023/03/18 08:13:55;;;;;;;5.05;4.25;;;7.40;82.10;;;;;;4976612;28;20034;-60
2023/03/18 08:16:20;;;;;;;5.22;4.28;;;7.40;82.00;;;;;;4975748;28;20030;-60
2023/03/18 08:18:46;;;;;;;4.97;4.00;;;7.40;81.90;;;;;;4974730;28;20489;-60
2023/03/18 08:21:12;;;;;;;4.32;3.72;;;7.50;81.80;;;;;;4974743;28;20035;-60
2023/03/18 08:23:38;;;;;;;6.00;4.07;;;7.50;81.60;;;;;;4974516;28;20034;-60
2023/03/18 08:26:04;;;;;;;4.75;3.90;;;7.50;81.30;;;;;;4969568;28;20054;-69
2023/03/18 08:28:30;;;;;;;4.93;4.07;;;7.50;81.20;;;;;;4982259;28;20031;-69
2023/03/18 08:30:58;;;;;;;4.18;3.75;;;7.50;81.10;;;;;;4983286;28;20023;-70
2023/03/18 08:33:25;;;;;;;4.28;3.78;;;7.50;81.10;;;;;;4983401;28;20037;-68
2023/03/18 08:35:51;;;;;;;4.57;3.70;;;7.50;80.90;;;;;;4983833;28;20402;-59
2023/03/18 08:38:18;;;;;;;4.32;3.80;;;7.60;81.10;;;;;;4975855;28;20433;-59
2023/03/18 08:40:45;;;;;;;5.00;4.18;;;7.60;80.90;;;;;;4975760;28;20097;-60
2023/03/18 08:43:10;;;;;;;4.57;3.92;;;7.60;80.70;;;;;;4975976;28;20734;-58
2023/03/18 08:45:36;;;;;;;4.18;3.70;;;7.60;80.60;;;;;;4976014;28;20045;-59
2023/03/18 08:48:02;;;;;;;3.92;3.53;;;7.60;80.50;;;;;;4987422;28;20509;-63
2023/03/18 08:50:28;;;;;;;4.75;3.95;;;7.60;80.40;;;;;;4976165;28;20443;-63
2023/03/18 08:52:58;;;;;;;4.82;3.70;;;7.60;80.30;;;;;;4975202;28;20042;-62
2023/03/18 08:55:30;;;;;;;4.75;4.05;;;7.60;80.20;;;;;;4981461;28;20390;-63
2023/03/18 08:57:56;;;;;;;4.43;3.78;;;7.60;80.20;;;;;;4970854;28;20562;-59
2023/03/18 09:00:23;;;;;;;4.72;3.90;;;7.60;80.20;;;;;;4974839;28;20039;-59
2023/03/18 09:02:48;;;;;;;3.83;3.45;;;7.60;80.20;;;;;;4973772;28;20031;-61
2023/03/18 09:05:14;;;;;;;4.40;3.58;;;7.60;80.10;;;;;;4975313;28;20058;-62
2023/03/18 09:07:40;;;;;;;4.65;3.88;;;7.60;80.00;;;;;;4975768;28;20019;-63
2023/03/18 09:10:06;;;;;;;4.00;3.60;;;7.70;80.00;;;;;;4975441;28;20035;-63
2023/03/18 09:12:31;;;;;;;4.43;3.75;;;7.70;79.80;;;;;;4970939;28;20533;-59
2023/03/18 09:14:57;;;;;;;5.57;3.90;;;7.80;79.80;;;;;;4969885;28;20035;-58
2023/03/18 09:17:23;;;;;;;4.50;3.60;;;7.80;79.70;;;;;;4975714;28;20463;-61
2023/03/18 09:19:49;;;;;;;4.38;3.78;;;7.80;79.40;;;;;;4975474;28;20033;-61
2023/03/18 09:22:15;;;;;;;4.97;3.92;;;7.80;79.20;;;;;;4979984;28;20065;-71
2023/03/18 09:24:41;;;;;;;4.72;3.92;;;7.80;79.80;;;;;;4983203;28;20398;-69
2023/03/18 09:27:06;;;;;;;3.90;3.50;;;7.90;79.00;;;;;;4978867;28;20034;-64
2023/03/18 09:29:32;;;;;;;4.18;3.42;;;7.90;78.80;;;;;;4975467;28;20034;-63
2023/03/18 09:31:59;;;;;;;3.95;3.33;;;7.90;78.60;;;;;;4974939;28;20023;-63
2023/03/18 09:34:26;;;;;;;4.22;3.60;;;7.90;78.60;;;;;;4974744;28;20042;-62
2023/03/18 09:36:51;;;;;;;4.63;3.95;;;8.00;78.50;;;;;;4975228;28;20046;-63
2023/03/18 09:39:21;;;;;;;5.15;4.05;;;8.00;78.40;;;;;;4974999;28;20027;-63
2023/03/18 09:41:53;;;;;;;3.88;3.47;;;8.00;78.40;;;;;;4964931;28;20351;-63
2023/03/18 09:44:34;;;;;;;3.75;3.42;;;8.10;78.50;;;;;;4975271;28;20027;-63
2023/03/18 09:47:37;;;;;;;4.03;3.63;;;8.00;78.60;;;;;;4983825;28;20465;-63
2023/03/18 09:50:35;;;;;;;4.43;3.35;;;8.10;78.50;;;;;;4964538;28;20257;-63
2023/03/18 09:53:38;;;;;;;3.83;3.42;;;8.10;78.20;;;;;;4974173;28;20038;-63
2023/03/18 09:56:11;;;;;;;4.57;3.47;;;8.00;78.10;;;;;;4970249;28;20117;-63
2023/03/18 09:59:02;;;;;;;4.13;3.67;;;8.00;78.20;;;;;;4974680;28;20042;-63
2023/03/18 10:01:30;;;;;;;4.15;3.55;;;8.00;78.70;;;;;;4968757;28;20054;-63
2023/03/18 10:04:20;;;;;;;4.72;3.58;;;7.90;78.20;;;;;;4974297;28;20351;-63
2023/03/18 10:06:48;;;;;;;4.07;3.50;;;8.00;78.90;;;;;;4974066;28;20126;-60
2023/03/18 10:09:29;;;;;;;3.85;3.42;;;8.00;78.90;;;;;;4971221;28;20035;-58
2023/03/18 10:12:19;;;;;;;5.18;3.65;;;8.00;78.30;;;;;;4973700;28;20047;-60
2023/03/18 10:14:56;;;;;;;4.50;3.55;;;8.10;78.40;;;;;;4974622;28;20038;-60
2023/03/18 10:17:31;;;;;;;3.83;3.40;;;8.00;78.50;;;;;;4964113;28;20037;-56
2023/03/18 10:19:59;;;;;;;3.95;3.55;;;8.00;78.40;;;;;;4972892;28;20018;-56
2023/03/18 10:22:37;;;;;;;3.78;3.33;;;8.00;78.40;;;;;;4972868;28;20042;-58
2023/03/18 10:25:13;;;;;;;5.15;4.00;;;8.10;78.20;;;;;;4973518;28;20070;-57
2023/03/18 10:28:00;;;;;;;5.10;4.20;;;8.10;78.00;;;;;;4974829;28;20518;-59
2023/03/18 10:30:42;;;;;;;5.78;3.97;;;8.20;77.80;;;;;;4973838;28;20027;-60
2023/03/18 10:34:03;;;;;;;5.45;4.05;;;8.20;77.40;;;;;;4973177;28;20038;-59
2023/03/18 10:36:50;;;;;;;4.88;4.15;;;8.20;77.40;;;;;;4957042;28;20030;-59
2023/03/18 10:39:23;;;;;;;4.97;4.30;;;8.20;77.20;;;;;;4973919;28;20132;-59
2023/03/18 10:41:51;;;;;;;5.35;4.10;;;8.20;77.10;;;;;;4973293;28;20030;-64
2023/03/18 10:44:37;;;;;;;5.05;3.88;;;8.10;77.00;;;;;;4974063;28;20121;-63
2023/03/18 10:47:14;;;;;;;4.00;3.60;;;8.10;77.10;;;;;;4983178;28;20025;-59
2023/03/18 10:49:43;;;;;;;4.60;3.75;;;8.00;77.20;;;;;;4974517;28;20034;-59
2023/03/18 10:52:32;;;;;;;5.05;3.95;;;8.00;77.30;;;;;;4973071;28;20032;-58
2023/03/18 10:54:58;;;;;;;4.00;3.60;;;7.90;77.60;;;;;;4966565;28;20031;-60
2023/03/18 10:57:24;;;;;;;3.60;3.30;;;7.80;77.70;;;;;;4976606;28;20059;-63
2023/03/18 10:59:50;;;;;;;4.85;4.18;;;7.80;77.80;;;;;;4972883;28;20153;-63
2023/03/18 11:02:25;;;;;;;5.10;3.97;;;7.80;77.70;;;;;;4971793;28;20119;-63
2023/03/18 11:05:22;;;;;;;4.22;3.80;;;7.90;77.80;;;;;;4962898;28;20436;-63
2023/03/18 11:08:00;;;;;;;4.65;3.85;;;7.90;77.70;;;;;;4960519;28;20055;-60
2023/03/18 11:10:34;;;;;;;4.50;3.50;;;7.90;77.60;;;;;;4973289;28;20081;-61
2023/03/18 11:13:05;;;;;;;5.35;3.90;;;7.90;77.60;;;;;;4969579;28;20027;-61
2023/03/18 11:15:40;;;;;;;4.90;4.07;;;7.90;77.50;;;;;;4971957;28;20030;-61
2023/03/18 11:18:15;;;;;;;4.40;3.80;;;7.90;77.50;;;;;;4972691;28;20077;-61
2023/03/18 11:20:46;;;;;;;4.35;3.85;;;8.00;77.50;;;;;;4960790;28;20027;-61
2023/03/18 11:23:45;;;;;;;4.20;3.80;;;8.00;77.60;;;;;;4971371;28;20664;-61
2023/03/18 11:26:25;;;;;;;5.70;4.20;;;8.10;77.30;;;;;;4971189;28;20047;-60
2023/03/18 11:28:58;;;;;;;3.97;3.58;;;8.10;77.20;;;;;;4971961;28;20113;-61
2023/03/18 11:31:24;;;;;;;4.40;3.97;;;8.10;77.30;;;;;;4971649;28;20031;-63
2023/03/18 11:33:56;;;;;;;4.38;3.63;;;8.10;77.20;;;;;;4968602;28;20031;-63
2023/03/18 11:36:23;;;;;;;5.03;4.15;;;8.20;77.30;;;;;;4971723;28;20513;-63
2023/03/18 11:39:02;;;;;;;4.50;3.95;;;8.20;77.20;;;;;;4972218;28;20022;-63
2023/03/18 11:41:31;;;;;;;4.82;4.20;;;8.20;77.10;;;;;;4972715;28;20450;-59
2023/03/18 11:44:02;;;;;;;4.43;3.83;;;8.30;77.10;;;;;;4973397;28;20105;-58
2023/03/18 11:46:44;;;;;;;4.85;4.35;;;8.30;77.00;;;;;;4977140;28;20034;-58
2023/03/18 11:49:16;;;;;;;4.22;3.83;;;8.30;76.90;;;;;;4974012;28;20035;-57
2023/03/18 11:52:10;;;;;;;5.05;4.22;;;8.30;76.70;;;;;;4972873;28;20094;-59
2023/03/18 11:55:09;;;;;;;4.43;4.03;;;8.30;76.50;;;;;;4972369;28;20110;-59
2023/03/18 11:58:16;;;;;;;4.88;4.20;;;8.30;76.40;;;;;;4974134;28;20030;-58
2023/03/18 12:00:49;;;;;;;5.25;4.28;;;8.30;76.30;;;;;;4964240;28;20760;-57
2023/03/18 12:03:21;;;;;;;4.47;4.00;;;8.20;76.40;;;;;;4972877;28;20043;-59
2023/03/18 12:06:13;;;;;;;6.10;4.72;;;8.20;76.30;;;;;;4958894;28;20081;-58
2023/03/18 12:09:16;;;;;;;7.43;5.20;;;8.20;76.20;;;;;;4971674;28;20035;-59
2023/03/18 12:12:05;;;;;;;5.75;4.70;;;8.20;76.20;;;;;;4966495;28;20066;-60
2023/03/18 12:14:52;;;;;;;5.55;4.78;;;8.20;76.10;;;;;;4972959;28;20030;-59
2023/03/18 12:17:39;;;;;;;5.63;4.80;;;8.10;76.30;;;;;;4972497;28;20034;-58
2023/03/18 12:20:29;;;;;;;5.55;4.75;;;8.10;76.30;;;;;;4968163;28;20058;-60
2023/03/18 12:23:12;;;;;;;4.70;4.30;;;8.10;76.20;;;;;;4966069;28;20098;-60
2023/03/18 12:26:02;;;;;;;6.18;4.60;;;8.10;76.10;;;;;;4971086;28;20055;-59
2023/03/18 12:28:46;;;;;;;5.85;4.65;;;8.10;76.10;;;;;;4972363;28;20039;-61
2023/03/18 12:31:21;;;;;;;4.70;4.15;;;8.10;76.20;;;;;;4971317;28;20053;-57
2023/03/18 12:33:57;;;;;;;4.68;4.18;;;8.20;76.30;;;;;;4972438;28;20122;-58
2023/03/18 12:36:37;;;;;;;4.80;4.30;;;8.10;76.30;;;;;;4972189;28;20454;-60
2023/03/18 12:39:39;;;;;;;5.18;4.13;;;8.10;76.50;;;;;;4972231;28;20410;-60
2023/03/18 12:42:16;;;;;;;4.93;4.40;;;8.00;76.50;;;;;;4973407;28;20050;-71
2023/03/18 12:44:42;;;;;;;5.55;4.30;;;8.00;76.70;;;;;;4979842;28;20039;-69
2023/03/18 12:47:15;;;;;;;4.80;4.28;;;7.90;76.60;;;;;;4983378;28;20053;-63
2023/03/18 12:49:49;;;;;;;4.80;4.30;;;7.90;76.90;;;;;;4974923;28;20446;-63
2023/03/18 12:52:26;;;;;;;5.57;4.30;;;7.80;77.00;;;;;;4975992;28;20540;-63
2023/03/18 12:55:10;;;;;;;4.82;4.15;;;7.70;77.00;;;;;;4979582;28;20041;-64
2023/03/18 12:57:48;;;;;;;4.50;4.05;;;7.70;77.30;;;;;;4973401;28;20034;-61
2023/03/18 13:00:19;;;;;;;4.57;4.07;;;7.60;77.50;;;;;;4980796;28;20034;-62
2023/03/18 13:02:57;;;;;;;4.35;3.90;;;7.60;78.40;;;;;;4988329;28;20081;-69
2023/03/18 13:05:35;;;;;;;5.15;4.18;;;7.50;77.80;;;;;;4985469;28;20117;-71
2023/03/18 13:08:17;;;;;;;4.93;4.30;;;7.50;77.80;;;;;;4990483;28;20034;-70
2023/03/18 13:10:44;;;;;;;;;;;7.40;77.90;;;;;;4990599;28;20114;-70